Abdaly, Kuwait

5:00 AM AST on September 02, 2014 (GMT +0300)
Abdally | Change Station
CLOSE
Current Station
Personal Weather Station
Location: Abdally, JAHRA
Elevation: 46 ft
Nearby Weather Stations

Elev 46 ft 30.03 °N, 47.75 °E | Updated 10 minutes ago

Clear
Clear
85.5 °F
Feels Like 83 °F
N
2.0
Wind Variable Wind from West
Gusts 5.0 mph

Today
High -- | Low -- °F
--% Chance of Precip.
Yesterday
High -- | Low -- °F
Precip. -- in
5:26 AM 6:10 PM
Waxing Crescent, 46% visible
Pressure 29.50 in
Visibility -9999.0 miles
Clouds
Heat Index 83 °F
Dew Point 44 °F
Humidity 23%
Rainfall 0.00 in
Snow Depth Not available.
UV Not available.
Pollen Not available.
Air Quality Not available.
Flu Activity Not available.
METAR ORMM 020200Z 00000KT CAVOK 27/14 Q0999 NOSIG

More Conditions Fewer Conditions

Pressure 29.50 in
Visibility -9999.0 miles
Clouds
Heat Index 83 °F
Dew Point 44 °F
Humidity 23%
Rainfall 0.00 in
Snow Depth Not available.
UV Not available.
Pollen Not available.
Air Quality Not available.
Flu Activity Not available.
METAR ORMM 020200Z 00000KT CAVOK 27/14 Q0999 NOSIG

More Conditions Fewer Conditions

10-Day Weather Forecast

Almanac

Astronomy

Sep. 02, 2014 Rise Set
Actual Time 5:26 AM AST 6:10 PM AST
Civil Twilight 5:02 AM AST 6:35 PM AST
Nautical Twilight 4:33 AM AST 7:03 PM AST
Astronomical Twilight 4:04 AM AST 7:33 PM AST
Moon 12:18 PM AST 11:13 PM AST
Length of Visible Light 13h 33m
Length of Day
12h 44m
Tomorrow will be 1m 43s shorter.
Waxing Crescent, 46% of the Moon is Illuminated
Sep 1
Waxing Crescent
Sep 2
First Quarter
Sep 8
Full
Sep 15
Last Quarter
Sep 24
New

Yesterday's Extremes

Country Highs Country Lows

Community

WunderPhotos

Upload Photos

1,749,493 photos uploaded!

Nearby

Snow Depth

Not available.

Earthquake Activity

City Distance Mag. Time & Date
No recent earthquake activity has been reported nearby.
Minimum magnitude displayed is 2.5.

Coastal Water Temperatures

Place Temperature
No Stations Reporting

Nearby Weather Stations